South Hadley, Massachusetts
Current Conditions -  °F | °C
As of 1:58 AM on Saturday 29 Nov 2014 (Local Time) from KCEF Reporting Station
Clear Clear  
Wind Chill: 10°   Ceiling: Unl
Heat Index: 17°   Visibility: 10mi
Dew Point: 11°   Wind: 5mph
Humidity: 80%   Direction: 250°WSW
Pressure: 30.24"   Gusts: NA
Location:  42.26°N, 72.58°W
Report Text: KCEF 290658Z AUTO 25004KT 10SM CLR M08/M11 A3024 RMK AO2 SLP250 T10851114
Loading
Personal Weather Stations






























Interactive Weather Map New forecast layout! Learn more

10-Day Weather Forecast

Advertisements
Track Severe Weather on mobile